sensor_id;sensor_type;location;lat;lon;timestamp;pressure;altitude;pressure_sealevel;temperature;humidity
57192;BME280;43052;52.588;13.396;2023-02-03T08:11:33;100679.38;;;6.18;90.75
57192;BME280;43052;52.588;13.396;2023-02-03T08:13:58;100671.16;;;6.66;92.00
57192;BME280;43052;52.588;13.396;2023-02-03T08:16:23;100673.16;;;6.95;92.37
57192;BME280;43052;52.588;13.396;2023-02-03T08:18:49;100663.78;;;7.14;92.91
57192;BME280;43052;52.588;13.396;2023-02-03T08:21:14;100656.06;;;7.29;92.88
57192;BME280;43052;52.588;13.396;2023-02-03T08:23:39;100658.75;;;7.45;92.48
57192;BME280;43052;52.588;13.396;2023-02-03T08:26:04;100646.59;;;7.45;92.19
57192;BME280;43052;52.588;13.396;2023-02-03T08:28:30;100638.78;;;7.39;91.22
57192;BME280;43052;52.588;13.396;2023-02-03T08:30:55;100644.84;;;7.36;90.32
57192;BME280;43052;52.588;13.396;2023-02-03T08:33:21;100643.06;;;7.31;89.96
57192;BME280;43052;52.588;13.396;2023-02-03T08:35:48;100642.22;;;7.32;90.00
57192;BME280;43052;52.588;13.396;2023-02-03T08:38:14;100637.91;;;7.34;89.82
57192;BME280;43052;52.588;13.396;2023-02-03T08:40:39;100627.50;;;7.35;89.03
57192;BME280;43052;52.588;13.396;2023-02-03T08:43:04;100632.69;;;7.37;89.19
57192;BME280;43052;52.588;13.396;2023-02-03T08:45:30;100630.97;;;7.37;88.99
57192;BME280;43052;52.588;13.396;2023-02-03T08:47:55;100608.44;;;7.35;88.70
57192;BME280;43052;52.588;13.396;2023-02-03T08:50:21;100616.22;;;7.38;88.26
57192;BME280;43052;52.588;13.396;2023-02-03T08:52:46;100605.81;;;7.38;87.85
57192;BME280;43052;52.588;13.396;2023-02-03T08:55:11;100607.56;;;7.36;87.97
57192;BME280;43052;52.588;13.396;2023-02-03T08:57:36;100591.97;;;7.36;87.56
57192;BME280;43052;52.588;13.396;2023-02-03T09:00:04;100594.56;;;7.36;87.05
57192;BME280;43052;52.588;13.396;2023-02-03T09:02:30;100596.28;;;7.34;86.84
57192;BME280;43052;52.588;13.396;2023-02-03T09:04:55;100597.16;;;7.36;86.77
57192;BME280;43052;52.588;13.396;2023-02-03T09:07:20;100578.94;;;7.41;86.71
57192;BME280;43052;52.588;13.396;2023-02-03T09:09:46;100584.16;;;7.37;86.38
57192;BME280;43052;52.588;13.396;2023-02-03T09:12:11;100580.66;;;7.37;86.60
57192;BME280;43052;52.588;13.396;2023-02-03T09:14:37;100562.47;;;7.40;86.36
57192;BME280;43052;52.588;13.396;2023-02-03T09:17:03;100578.09;;;7.40;86.15
57192;BME280;43052;52.588;13.396;2023-02-03T09:19:30;100565.97;;;7.42;85.75
57192;BME280;43052;52.588;13.396;2023-02-03T09:21:55;100561.59;;;7.43;86.03
57192;BME280;43052;52.588;13.396;2023-02-03T09:24:23;100568.56;;;7.50;85.78
57192;BME280;43052;52.588;13.396;2023-02-03T09:26:49;100575.56;;;7.57;85.76
57192;BME280;43052;52.588;13.396;2023-02-03T09:29:14;100563.41;;;7.59;85.62
57192;BME280;43052;52.588;13.396;2023-02-03T09:31:40;100561.69;;;7.61;85.20
57192;BME280;43052;52.588;13.396;2023-02-03T09:34:05;100552.16;;;7.65;85.29
57192;BME280;43052;52.588;13.396;2023-02-03T09:36:31;100544.38;;;7.68;85.05
57192;BME280;43052;52.588;13.396;2023-02-03T09:38:56;100540.88;;;7.64;84.70
57192;BME280;43052;52.588;13.396;2023-02-03T09:44:45;100538.28;;;7.66;84.55
57192;BME280;43052;52.588;13.396;2023-02-03T09:47:15;100526.13;;;7.65;84.56
57192;BME280;43052;52.588;13.396;2023-02-03T09:49:46;100522.66;;;7.67;84.45
57192;BME280;43052;52.588;13.396;2023-02-03T09:52:24;100517.47;;;7.69;84.50
57192;BME280;43052;52.588;13.396;2023-02-03T09:54:57;100507.06;;;7.74;84.62
57192;BME280;43052;52.588;13.396;2023-02-03T09:57:27;100477.59;;;7.84;84.20
57192;BME280;43052;52.588;13.396;2023-02-03T09:59:55;100482.78;;;7.86;83.99
57192;BME280;43052;52.588;13.396;2023-02-03T10:02:36;100483.66;;;7.88;84.05
57192;BME280;43052;52.588;13.396;2023-02-03T10:05:35;100451.53;;;7.92;84.13
57192;BME280;43052;52.588;13.396;2023-02-03T10:10:40;100453.28;;;8.02;83.56
57192;BME280;43052;52.588;13.396;2023-02-03T10:13:31;100455.03;;;8.06;83.07
57192;BME280;43052;52.588;13.396;2023-02-03T10:18:45;100463.72;;;8.05;82.83
57192;BME280;43052;52.588;13.396;2023-02-03T10:21:35;100435.94;;;8.04;82.81
57192;BME280;43052;52.588;13.396;2023-02-03T10:24:03;100461.09;;;8.02;82.39
57192;BME280;43052;52.588;13.396;2023-02-03T10:26:30;100461.97;;;8.04;82.36
57192;BME280;43052;52.588;13.396;2023-02-03T10:28:57;100474.13;;;8.05;82.25
57192;BME280;43052;52.588;13.396;2023-02-03T10:31:27;100464.56;;;8.07;82.52
57192;BME280;43052;52.588;13.396;2023-02-03T10:33:59;100513.19;;;8.02;82.37
57192;BME280;43052;52.588;13.396;2023-02-03T10:36:47;100533.13;;;7.95;82.00
57192;BME280;43052;52.588;13.396;2023-02-03T10:41:58;100527.06;;;7.86;77.62
57192;BME280;43052;52.588;13.396;2023-02-03T10:44:30;100583.41;;;7.68;76.34
57192;BME280;43052;52.588;13.396;2023-02-03T10:46:58;100574.69;;;7.57;75.89
57192;BME280;43052;52.588;13.396;2023-02-03T10:49:25;100545.16;;;7.42;72.96
57192;BME280;43052;52.588;13.396;2023-02-03T10:51:53;100541.63;;;7.35;73.57
57192;BME280;43052;52.588;13.396;2023-02-03T10:54:28;100551.19;;;7.38;74.68
57192;BME280;43052;52.588;13.396;2023-02-03T10:57:02;100535.66;;;7.57;75.01
57192;BME280;43052;52.588;13.396;2023-02-03T10:59:30;100528.75;;;7.74;73.94
57192;BME280;43052;52.588;13.396;2023-02-03T11:01:56;100534.00;;;7.87;73.01
57192;BME280;43052;52.588;13.396;2023-02-03T11:04:26;100548.75;;;7.88;72.62
57192;BME280;43052;52.588;13.396;2023-02-03T11:07:01;100540.06;;;7.82;73.08
57192;BME280;43052;52.588;13.396;2023-02-03T11:09:33;100551.31;;;7.81;72.58
57192;BME280;43052;52.588;13.396;2023-02-03T11:12:04;100529.66;;;7.81;72.50
57192;BME280;43052;52.588;13.396;2023-02-03T11:14:36;100537.47;;;7.86;72.29
57192;BME280;43052;52.588;13.396;2023-02-03T11:17:14;100534.00;;;7.94;72.79
57192;BME280;43052;52.588;13.396;2023-02-03T11:19:43;100528.81;;;8.04;72.27
57192;BME280;43052;52.588;13.396;2023-02-03T11:22:09;100516.66;;;8.21;72.09
57192;BME280;43052;52.588;13.396;2023-02-03T11:24:39;100518.38;;;8.38;71.65
57192;BME280;43052;52.588;13.396;2023-02-03T11:27:08;100535.81;;;8.50;70.77
57192;BME280;43052;52.588;13.396;2023-02-03T11:29:36;100525.38;;;8.60;70.30
57192;BME280;43052;52.588;13.396;2023-02-03T11:32:17;100521.00;;;8.83;70.63
57192;BME280;43052;52.588;13.396;2023-02-03T11:34:55;100519.13;;;9.22;68.93
57192;BME280;43052;52.588;13.396;2023-02-03T11:37:37;100531.22;;;9.41;67.81
57192;BME280;43052;52.588;13.396;2023-02-03T11:42:32;100527.84;;;9.18;67.45
57192;BME280;43052;52.588;13.396;2023-02-03T11:47:53;100526.16;;;9.00;67.72
57192;BME280;43052;52.588;13.396;2023-02-03T11:50:29;100536.56;;;9.04;67.30
57192;BME280;43052;52.588;13.396;2023-02-03T11:56:13;100533.78;;;9.54;67.08
57192;BME280;43052;52.588;13.396;2023-02-03T11:59:25;100538.16;;;9.49;65.53
57192;BME280;43052;52.588;13.396;2023-02-03T12:02:02;100516.41;;;9.48;65.12
57192;BME280;43052;52.588;13.396;2023-02-03T12:05:03;100518.19;;;9.41;64.74
57192;BME280;43052;52.588;13.396;2023-02-03T12:07:54;100508.66;;;9.34;63.47
57192;BME280;43052;52.588;13.396;2023-02-03T12:13:34;100517.38;;;9.32;63.32
57192;BME280;43052;52.588;13.396;2023-02-03T12:21:45;100520.09;;;8.91;63.98
57192;BME280;43052;52.588;13.396;2023-02-03T12:27:19;100528.75;;;9.00;63.61
57192;BME280;43052;52.588;13.396;2023-02-03T12:29:58;100530.44;;;9.24;63.48
57192;BME280;43052;52.588;13.396;2023-02-03T12:32:32;100528.53;;;9.60;62.48
57192;BME280;43052;52.588;13.396;2023-02-03T12:35:14;100537.19;;;9.68;61.53
57192;BME280;43052;52.588;13.396;2023-02-03T12:40:34;100521.38;;;9.92;61.72
57192;BME280;43052;52.588;13.396;2023-02-03T12:43:30;100540.50;;;9.95;60.60
57192;BME280;43052;52.588;13.396;2023-02-03T12:46:08;100522.41;;;9.67;58.12
57192;BME280;43052;52.588;13.396;2023-02-03T12:51:28;100677.44;;;8.58;61.31
57192;BME280;43052;52.588;13.396;2023-02-03T12:53:59;100682.63;;;6.88;64.63
57192;BME280;43052;52.588;13.396;2023-02-03T12:56:34;100696.81;;;5.62;68.21
57192;BME280;43052;52.588;13.396;2023-02-03T12:59:08;100694.34;;;5.10;71.10
57192;BME280;43052;52.588;13.396;2023-02-03T13:02:03;100690.66;;;4.97;71.82
57192;BME280;43052;52.588;13.396;2023-02-03T13:04:58;100658.75;;;5.01;72.28
57192;BME280;43052;52.588;13.396;2023-02-03T13:07:45;100662.41;;;5.14;72.69
57192;BME280;43052;52.588;13.396;2023-02-03T13:10:24;100665.19;;;5.27;72.84
57192;BME280;43052;52.588;13.396;2023-02-03T13:12:54;100673.25;;;5.47;73.06
57192;BME280;43052;52.588;13.396;2023-02-03T13:15:27;100663.06;;;5.61;73.00
57192;BME280;43052;52.588;13.396;2023-02-03T13:18:06;100670.19;;;5.76;72.67
57192;BME280;43052;52.588;13.396;2023-02-03T13:20:35;100675.50;;;5.88;72.86
57192;BME280;43052;52.588;13.396;2023-02-03T13:23:06;100684.25;;;5.93;72.70
57192;BME280;43052;52.588;13.396;2023-02-03T13:25:48;100682.66;;;6.02;73.09
57192;BME280;43052;52.588;13.396;2023-02-03T13:28:31;100652.38;;;6.04;73.25
57192;BME280;43052;52.588;13.396;2023-02-03T13:31:20;100646.31;;;6.05;73.29
57192;BME280;43052;52.588;13.396;2023-02-03T13:37:15;100662.25;;;6.36;71.75
57192;BME280;43052;52.588;13.396;2023-02-03T13:40:02;100645.03;;;6.47;71.13
57192;BME280;43052;52.588;13.396;2023-02-03T13:42:33;100646.78;;;6.50;69.87
57192;BME280;43052;52.588;13.396;2023-02-03T13:47:46;100655.38;;;6.42;70.13
57192;BME280;43052;52.588;13.396;2023-02-03T13:50:23;100643.13;;;6.27;69.92
57192;BME280;43052;52.588;13.396;2023-02-03T13:52:57;100635.22;;;6.20;70.13
57192;BME280;43052;52.588;13.396;2023-02-03T13:55:28;100637.78;;;6.15;70.32
57192;BME280;43052;52.588;13.396;2023-02-03T13:57:54;100616.94;;;6.09;70.73
57192;BME280;43052;52.588;13.396;2023-02-03T14:06:04;100619.63;;;6.17;71.66
57192;BME280;43052;52.588;13.396;2023-02-03T14:16:46;100626.31;;;6.88;69.44
57192;BME280;43052;52.588;13.396;2023-02-03T14:21:50;100637.53;;;6.83;69.82
57192;BME280;43052;52.588;13.396;2023-02-03T14:24:16;100645.41;;;6.94;69.49
57192;BME280;43052;52.588;13.396;2023-02-03T14:26:53;100655.06;;;7.09;69.33
57192;BME280;43052;52.588;13.396;2023-02-03T14:35:16;100644.00;;;7.42;68.17
57192;BME280;43052;52.588;13.396;2023-02-03T14:37:51;100653.59;;;7.49;67.96
57192;BME280;43052;52.588;13.396;2023-02-03T14:40:27;100647.56;;;7.53;67.87
57192;BME280;43052;52.588;13.396;2023-02-03T14:43:08;100644.06;;;7.55;67.20
57192;BME280;43052;52.588;13.396;2023-02-03T14:54:04;100652.94;;;7.98;66.76
57192;BME280;43052;52.588;13.396;2023-02-03T14:56:45;100657.25;;;7.98;66.38
57192;BME280;43052;52.588;13.396;2023-02-03T14:59:53;100663.38;;;8.03;66.22
57192;BME280;43052;52.588;13.396;2023-02-03T15:02:23;100665.13;;;8.04;65.86
57192;BME280;43052;52.588;13.396;2023-02-03T15:07:38;100676.28;;;7.81;65.63
57192;BME280;43052;52.588;13.396;2023-02-03T15:10:30;100666.69;;;7.68;65.85
57192;BME280;43052;52.588;13.396;2023-02-03T15:13:04;100676.19;;;7.61;66.00
57192;BME280;43052;52.588;13.396;2023-02-03T15:15:32;100682.25;;;7.52;65.85
57192;BME280;43052;52.588;13.396;2023-02-03T15:18:19;100696.91;;;7.43;66.17
57192;BME280;43052;52.588;13.396;2023-02-03T15:20:46;100719.47;;;7.42;65.71
57192;BME280;43052;52.588;13.396;2023-02-03T15:23:26;100730.69;;;7.38;66.13
57192;BME280;43052;52.588;13.396;2023-02-03T15:25:57;100731.56;;;7.34;66.11
57192;BME280;43052;52.588;13.396;2023-02-03T15:28:24;100737.59;;;7.33;66.26
57192;BME280;43052;52.588;13.396;2023-02-03T15:31:04;100721.06;;;7.28;66.08
57192;BME280;43052;52.588;13.396;2023-02-03T15:33:33;100725.47;;;7.30;66.26
57192;BME280;43052;52.588;13.396;2023-02-03T15:36:23;100728.03;;;7.29;66.19
57192;BME280;43052;52.588;13.396;2023-02-03T15:38:57;100745.38;;;7.28;66.09
57192;BME280;43052;52.588;13.396;2023-02-03T15:41:26;100742.75;;;7.24;66.32
57192;BME280;43052;52.588;13.396;2023-02-03T15:43:55;100739.22;;;7.18;66.25
57192;BME280;43052;52.588;13.396;2023-02-03T15:46:32;100735.75;;;7.16;66.57
57192;BME280;43052;52.588;13.396;2023-02-03T15:49:09;100746.97;;;7.12;66.83
57192;BME280;43052;52.588;13.396;2023-02-03T15:51:41;100739.13;;;7.06;67.24
57192;BME280;43052;52.588;13.396;2023-02-03T15:56:58;100745.09;;;6.97;67.46
57192;BME280;43052;52.588;13.396;2023-02-03T15:59:36;100733.75;;;6.89;68.12
57192;BME280;43052;52.588;13.396;2023-02-03T16:02:13;100742.41;;;6.85;68.25
57192;BME280;43052;52.588;13.396;2023-02-03T16:04:40;100749.28;;;6.80;68.88
57192;BME280;43052;52.588;13.396;2023-02-03T16:07:05;100758.78;;;6.76;69.14
57192;BME280;43052;52.588;13.396;2023-02-03T16:09:33;100735.38;;;6.74;69.23
57192;BME280;43052;52.588;13.396;2023-02-03T16:12:04;100769.16;;;6.74;69.39
57192;BME280;43052;52.588;13.396;2023-02-03T16:14:38;100770.06;;;6.77;69.06
57192;BME280;43052;52.588;13.396;2023-02-03T16:17:03;100760.56;;;6.79;69.30
57192;BME280;43052;52.588;13.396;2023-02-03T16:19:29;100768.38;;;6.82;69.45
57192;BME280;43052;52.588;13.396;2023-02-03T16:21:58;100765.78;;;6.83;69.29
57192;BME280;43052;52.588;13.396;2023-02-03T16:29:54;100782.25;;;6.82;69.23
57192;BME280;43052;52.588;13.396;2023-02-03T16:32:38;100780.50;;;6.84;69.12
57192;BME280;43052;52.588;13.396;2023-02-03T16:35:22;100784.84;;;6.82;69.32
57192;BME280;43052;52.588;13.396;2023-02-03T16:38:13;100785.72;;;6.84;69.27
57192;BME280;43052;52.588;13.396;2023-02-03T16:40:57;100789.16;;;6.82;69.63
57192;BME280;43052;52.588;13.396;2023-02-03T16:43:41;100785.66;;;6.77;69.28
57192;BME280;43052;52.588;13.396;2023-02-03T16:46:25;100792.59;;;6.78;69.73
57192;BME280;43052;52.588;13.396;2023-02-03T16:49:09;100790.00;;;6.79;69.43
57192;BME280;43052;52.588;13.396;2023-02-03T16:51:53;100798.66;;;6.78;69.64
57192;BME280;43052;52.588;13.396;2023-02-03T16:54:18;100797.75;;;6.76;69.68
57192;BME280;43052;52.588;13.396;2023-02-03T16:56:43;100797.78;;;6.78;69.52
57192;BME280;43052;52.588;13.396;2023-02-03T16:59:09;100775.25;;;6.77;69.60
57192;BME280;43052;52.588;13.396;2023-02-03T17:01:35;100794.31;;;6.77;69.31
57192;BME280;43052;52.588;13.396;2023-02-03T17:04:01;100795.16;;;6.74;69.42
57192;BME280;43052;52.588;13.396;2023-02-03T17:06:27;100796.84;;;6.69;69.51
57192;BME280;43052;52.588;13.396;2023-02-03T17:08:52;100791.53;;;6.62;69.80
57192;BME280;43052;52.588;13.396;2023-02-03T17:11:20;100803.63;;;6.58;69.94
57192;BME280;43052;52.588;13.396;2023-02-03T17:13:47;100806.22;;;6.56;70.08
57192;BME280;43052;52.588;13.396;2023-02-03T17:16:18;100801.03;;;6.56;69.89
57192;BME280;43052;52.588;13.396;2023-02-03T17:18:44;100806.25;;;6.59;69.57
57192;BME280;43052;52.588;13.396;2023-02-03T17:21:15;100806.28;;;6.61;69.81
57192;BME280;43052;52.588;13.396;2023-02-03T17:23:41;100818.44;;;6.65;69.75
57192;BME280;43052;52.588;13.396;2023-02-03T17:26:07;100807.19;;;6.65;69.72
57192;BME280;43052;52.588;13.396;2023-02-03T17:28:33;100825.41;;;6.68;69.43
57192;BME280;43052;52.588;13.396;2023-02-03T17:31:00;100828.00;;;6.68;68.98
57192;BME280;43052;52.588;13.396;2023-02-03T17:33:27;100815.91;;;6.70;69.17
57192;BME280;43052;52.588;13.396;2023-02-03T17:36:04;100813.34;;;6.73;68.71
57192;BME280;43052;52.588;13.396;2023-02-03T17:38:34;100815.13;;;6.79;68.37
57192;BME280;43052;52.588;13.396;2023-02-03T17:41:09;100819.50;;;6.81;68.17
57192;BME280;43052;52.588;13.396;2023-02-03T17:43:35;100833.41;;;6.86;67.79
57192;BME280;43052;52.588;13.396;2023-02-03T17:46:00;100823.91;;;6.88;68.11
57192;BME280;43052;52.588;13.396;2023-02-03T17:48:25;100828.22;;;6.88;67.67
57192;BME280;43052;52.588;13.396;2023-02-03T17:50:50;100847.34;;;6.92;67.88
57192;BME280;43052;52.588;13.396;2023-02-03T17:53:16;100829.97;;;6.89;67.85
57192;BME280;43052;52.588;13.396;2023-02-03T17:55:41;100828.25;;;6.93;67.61
57192;BME280;43052;52.588;13.396;2023-02-03T17:58:06;100850.84;;;6.95;67.38
57192;BME280;43052;52.588;13.396;2023-02-03T18:00:31;100854.28;;;6.94;67.33
57192;BME280;43052;52.588;13.396;2023-02-03T18:02:57;100863.84;;;6.95;67.19
57192;BME280;43052;52.588;13.396;2023-02-03T18:05:22;100854.28;;;6.94;67.09
57192;BME280;43052;52.588;13.396;2023-02-03T18:07:47;100863.84;;;6.97;67.36
57192;BME280;43052;52.588;13.396;2023-02-03T18:10:12;100864.72;;;6.97;67.46
57192;BME280;43052;52.588;13.396;2023-02-03T18:12:38;100868.19;;;6.99;67.19
57192;BME280;43052;52.588;13.396;2023-02-03T18:15:03;100868.22;;;7.01;67.15
57192;BME280;43052;52.588;13.396;2023-02-03T18:17:28;100882.06;;;6.98;67.22
57192;BME280;43052;52.588;13.396;2023-02-03T18:19:53;100865.59;;;6.99;67.30
57192;BME280;43052;52.588;13.396;2023-02-03T18:22:19;100862.19;;;7.03;67.28
57192;BME280;43052;52.588;13.396;2023-02-03T18:24:45;100864.81;;;7.05;66.86
57192;BME280;43052;52.588;13.396;2023-02-03T18:27:14;100850.91;;;7.01;66.68
57192;BME280;43052;52.588;13.396;2023-02-03T18:29:45;100866.50;;;7.00;67.07
57192;BME280;43052;52.588;13.396;2023-02-03T18:32:14;100862.16;;;6.99;67.00
57192;BME280;43052;52.588;13.396;2023-02-03T18:34:40;100854.34;;;7.00;67.05
57192;BME280;43052;52.588;13.396;2023-02-03T18:37:06;100864.75;;;7.00;67.07
57192;BME280;43052;52.588;13.396;2023-02-03T18:39:31;100876.00;;;7.01;67.15
57192;BME280;43052;52.588;13.396;2023-02-03T18:41:57;100869.09;;;7.01;67.01
57192;BME280;43052;52.588;13.396;2023-02-03T18:44:22;100869.09;;;7.01;66.88
57192;BME280;43052;52.588;13.396;2023-02-03T18:46:51;100876.00;;;7.01;66.83
57192;BME280;43052;52.588;13.396;2023-02-03T18:49:16;100877.75;;;7.00;67.10
57192;BME280;43052;52.588;13.396;2023-02-03T18:51:41;100872.56;;;7.00;67.00
57192;BME280;43052;52.588;13.396;2023-02-03T18:54:07;100882.94;;;6.99;67.18
57192;BME280;43052;52.588;13.396;2023-02-03T18:56:32;100899.41;;;6.99;67.17
57192;BME280;43052;52.588;13.396;2023-02-03T18:59:02;100913.31;;;7.01;67.16
57192;BME280;43052;52.588;13.396;2023-02-03T19:01:29;100895.97;;;7.00;67.09
57192;BME280;43052;52.588;13.396;2023-02-03T19:03:56;100896.81;;;6.98;67.49
57192;BME280;43052;52.588;13.396;2023-02-03T19:06:22;100896.78;;;6.96;67.40
57192;BME280;43052;52.588;13.396;2023-02-03T19:08:48;100915.00;;;6.96;67.33
57192;BME280;43052;52.588;13.396;2023-02-03T19:11:14;100909.81;;;6.98;67.49
57192;BME280;43052;52.588;13.396;2023-02-03T19:13:40;100913.31;;;7.00;67.57
57192;BME280;43052;52.588;13.396;2023-02-03T19:16:06;100911.50;;;6.96;67.52
57192;BME280;43052;52.588;13.396;2023-02-03T19:18:31;100926.19;;;6.92;68.35
57192;BME280;43052;52.588;13.396;2023-02-03T19:20:57;100907.09;;;6.88;68.66
57192;BME280;43052;52.588;13.396;2023-02-03T19:23:22;100908.72;;;6.80;69.19
57192;BME280;43052;52.588;13.396;2023-02-03T19:25:52;100909.53;;;6.74;69.53
57192;BME280;43052;52.588;13.396;2023-02-03T19:28:18;100914.59;;;6.67;69.90
57192;BME280;43052;52.588;13.396;2023-02-03T19:30:43;100926.72;;;6.65;70.05
57192;BME280;43052;52.588;13.396;2023-02-03T19:33:09;100919.72;;;6.61;70.25
57192;BME280;43052;52.588;13.396;2023-02-03T19:35:34;100925.84;;;6.63;70.70
57192;BME280;43052;52.588;13.396;2023-02-03T19:38:00;100918.88;;;6.62;70.37
57192;BME280;43052;52.588;13.396;2023-02-03T19:40:26;100933.63;;;6.64;70.68
57192;BME280;43052;52.588;13.396;2023-02-03T19:42:51;100936.25;;;6.66;70.66
57192;BME280;43052;52.588;13.396;2023-02-03T19:45:17;100925.84;;;6.64;70.69
57192;BME280;43052;52.588;13.396;2023-02-03T19:47:42;100932.78;;;6.65;71.09
57192;BME280;43052;52.588;13.396;2023-02-03T19:50:07;100946.69;;;6.67;70.94
57192;BME280;43052;52.588;13.396;2023-02-03T19:52:32;100936.25;;;6.66;71.11
57192;BME280;43052;52.588;13.396;2023-02-03T19:54:58;100941.44;;;6.66;70.97
57192;BME280;43052;52.588;13.396;2023-02-03T19:57:23;100947.53;;;6.65;71.03
57192;BME280;43052;52.588;13.396;2023-02-03T19:59:48;100938.81;;;6.61;71.49
57192;BME280;43052;52.588;13.396;2023-02-03T20:02:13;100941.38;;;6.59;71.47
57192;BME280;43052;52.588;13.396;2023-02-03T20:04:40;100943.13;;;6.62;71.57
57192;BME280;43052;52.588;13.396;2023-02-03T20:07:05;100954.41;;;6.63;71.52
57192;BME280;43052;52.588;13.396;2023-02-03T20:09:30;100951.81;;;6.61;72.15
57192;BME280;43052;52.588;13.396;2023-02-03T20:11:56;100960.38;;;6.55;72.36
57192;BME280;43052;52.588;13.396;2023-02-03T20:14:21;100965.47;;;6.49;72.99
57192;BME280;43052;52.588;13.396;2023-02-03T20:16:46;100967.13;;;6.42;73.24
57192;BME280;43052;52.588;13.396;2023-02-03T20:19:14;100976.59;;;6.39;73.44
57192;BME280;43052;52.588;13.396;2023-02-03T20:21:40;100972.25;;;6.38;73.50
57192;BME280;43052;52.588;13.396;2023-02-03T20:24:05;100978.28;;;6.37;73.87
57192;BME280;43052;52.588;13.396;2023-02-03T20:26:30;100982.56;;;6.33;74.42
57192;BME280;43052;52.588;13.396;2023-02-03T20:28:55;100982.47;;;6.27;74.53
57192;BME280;43052;52.588;13.396;2023-02-03T20:31:21;100986.72;;;6.23;74.86
57192;BME280;43052;52.588;13.396;2023-02-03T20:33:46;100985.88;;;6.24;74.91
57192;BME280;43052;52.588;13.396;2023-02-03T20:36:11;101008.34;;;6.21;75.10
57192;BME280;43052;52.588;13.396;2023-02-03T20:38:37;101004.03;;;6.21;75.82
57192;BME280;43052;52.588;13.396;2023-02-03T20:41:02;101012.63;;;6.17;76.21
57192;BME280;43052;52.588;13.396;2023-02-03T20:43:27;101001.22;;;6.07;76.19
57192;BME280;43052;52.588;13.396;2023-02-03T20:45:53;101017.56;;;6.02;76.49
57192;BME280;43052;52.588;13.396;2023-02-03T20:48:20;101018.41;;;6.01;76.93
57192;BME280;43052;52.588;13.396;2023-02-03T20:50:49;101027.09;;;6.04;76.94
57192;BME280;43052;52.588;13.396;2023-02-03T20:53:18;101030.63;;;6.06;76.80
57192;BME280;43052;52.588;13.396;2023-02-03T20:55:44;101033.22;;;6.08;77.01
57192;BME280;43052;52.588;13.396;2023-02-03T20:58:16;101037.50;;;6.04;77.03
57192;BME280;43052;52.588;13.396;2023-02-03T21:00:42;101053.06;;;6.03;77.33
57192;BME280;43052;52.588;13.396;2023-02-03T21:03:12;101066.84;;;6.00;77.46
57192;BME280;43052;52.588;13.396;2023-02-03T21:05:58;101096.19;;;5.97;77.54
57192;BME280;43052;52.588;13.396;2023-02-03T21:08:25;101102.97;;;5.91;78.17
57192;BME280;43052;52.588;13.396;2023-02-03T21:10:51;101140.69;;;5.73;77.89
57192;BME280;43052;52.588;13.396;2023-02-03T21:13:24;101149.81;;;5.53;76.69
57192;BME280;43052;52.588;13.396;2023-02-03T21:15:52;101159.84;;;5.37;76.73
57192;BME280;43052;52.588;13.396;2023-02-03T21:18:37;101172.63;;;5.28;76.63
57192;BME280;43052;52.588;13.396;2023-02-03T21:21:04;101202.59;;;5.16;76.18
57192;BME280;43052;52.588;13.396;2023-02-03T21:23:38;101203.09;;;5.01;75.30
57192;BME280;43052;52.588;13.396;2023-02-03T21:26:23;101224.28;;;4.85;74.58
57192;BME280;43052;52.588;13.396;2023-02-03T21:28:54;101230.97;;;4.75;73.68
57192;BME280;43052;52.588;13.396;2023-02-03T21:33:47;101269.00;;;4.46;72.99
57192;BME280;43052;52.588;13.396;2023-02-03T21:36:36;101271.25;;;4.32;72.77
57192;BME280;43052;52.588;13.396;2023-02-03T21:39:04;101287.47;;;4.26;71.94
57192;BME280;43052;52.588;13.396;2023-02-03T21:41:33;101294.06;;;4.15;71.88
57192;BME280;43052;52.588;13.396;2023-02-03T21:43:59;101304.09;;;4.04;72.02
57192;BME280;43052;52.588;13.396;2023-02-03T21:46:31;101312.41;;;3.94;72.23
57192;BME280;43052;52.588;13.396;2023-02-03T21:49:02;101308.94;;;3.93;72.15
57192;BME280;43052;52.588;13.396;2023-02-03T21:51:30;101328.13;;;4.00;72.05
57192;BME280;43052;52.588;13.396;2023-02-03T21:53:58;101347.97;;;3.99;72.10
57192;BME280;43052;52.588;13.396;2023-02-03T21:56:38;101348.00;;;4.01;71.93
57192;BME280;43052;52.588;13.396;2023-02-03T21:59:12;101346.38;;;4.04;72.35
57192;BME280;43052;52.588;13.396;2023-02-03T22:01:39;101364.63;;;4.09;71.80
57192;BME280;43052;52.588;13.396;2023-02-03T22:04:04;101368.13;;;4.10;71.88
57192;BME280;43052;52.588;13.396;2023-02-03T22:06:41;101362.88;;;4.08;72.04
57192;BME280;43052;52.588;13.396;2023-02-03T22:09:10;101385.31;;;4.07;71.90
57192;BME280;43052;52.588;13.396;2023-02-03T22:11:36;101387.06;;;4.08;72.01
57192;BME280;43052;52.588;13.396;2023-02-03T22:14:02;101405.38;;;4.15;71.93
57192;BME280;43052;52.588;13.396;2023-02-03T22:16:27;101402.78;;;4.15;72.28
57192;BME280;43052;52.588;13.396;2023-02-03T22:18:53;101407.13;;;4.16;72.28
57192;BME280;43052;52.588;13.396;2023-02-03T22:21:19;101416.41;;;4.09;72.29
57192;BME280;43052;52.588;13.396;2023-02-03T22:23:45;101433.38;;;3.99;72.35
57192;BME280;43052;52.588;13.396;2023-02-03T22:26:11;101441.91;;;3.97;72.33
57192;BME280;43052;52.588;13.396;2023-02-03T22:28:37;101453.66;;;3.87;72.36
57192;BME280;43052;52.588;13.396;2023-02-03T22:31:02;101451.03;;;3.85;72.19
57192;BME280;43052;52.588;13.396;2023-02-03T22:33:29;101465.50;;;3.80;72.27
57192;BME280;43052;52.588;13.396;2023-02-03T22:35:54;101475.78;;;3.77;72.40
57192;BME280;43052;52.588;13.396;2023-02-03T22:38:20;101482.56;;;3.73;72.25
57192;BME280;43052;52.588;13.396;2023-02-03T22:40:45;101486.75;;;3.70;71.93
57192;BME280;43052;52.588;13.396;2023-02-03T22:43:10;101488.44;;;3.69;72.21
57192;BME280;43052;52.588;13.396;2023-02-03T22:45:35;101495.41;;;3.72;72.15